createdAt,value
2019-05-30T00:01:05.316Z,6.98
2019-05-30T00:06:11.726Z,6.89
2019-05-30T00:11:17.064Z,6.80
2019-05-30T00:16:22.234Z,6.75
2019-05-30T00:21:27.503Z,6.68
2019-05-30T00:26:33.939Z,6.69
2019-05-30T00:31:39.611Z,6.68
2019-05-30T00:36:45.883Z,6.60
2019-05-30T00:41:51.105Z,6.61
2019-05-30T00:46:56.318Z,6.52
2019-05-30T00:52:02.630Z,6.47
2019-05-30T00:57:07.958Z,6.41
2019-05-30T01:02:13.272Z,6.40
2019-05-30T01:07:18.468Z,6.38
2019-05-30T01:12:24.812Z,6.35
2019-05-30T01:17:30.076Z,6.33
2019-05-30T01:22:35.245Z,6.32
2019-05-30T01:27:40.423Z,6.28
2019-05-30T01:32:45.633Z,6.27
2019-05-30T01:37:51.271Z,6.15
2019-05-30T01:42:57.785Z,6.15
2019-05-30T01:48:04.714Z,6.10
2019-05-30T01:53:10.371Z,6.06
2019-05-30T01:58:15.859Z,5.98
2019-05-30T02:03:21.111Z,5.91
2019-05-30T02:08:26.274Z,5.81
2019-05-30T02:13:31.450Z,5.78
2019-05-30T02:18:36.981Z,5.72
2019-05-30T02:23:42.527Z,5.66
2019-05-30T02:28:47.988Z,5.58
2019-05-30T02:33:53.230Z,5.57
2019-05-30T02:38:58.398Z,5.54
2019-05-30T02:44:05.290Z,5.52
2019-05-30T02:49:13.087Z,5.52
2019-05-30T02:54:17.387Z,5.47
2019-05-30T02:59:22.593Z,5.46
2019-05-30T03:04:28.913Z,5.42
2019-05-30T03:09:34.051Z,5.33
2019-05-30T03:14:39.399Z,5.38
2019-05-30T03:19:44.583Z,5.42
2019-05-30T03:24:49.693Z,5.43
2019-05-30T03:29:55.020Z,5.43
2019-05-30T03:35:00.490Z,5.44
2019-05-30T03:40:06.161Z,5.44
2019-05-30T03:45:15.741Z,5.46
2019-05-30T03:50:21.754Z,5.49
2019-05-30T03:55:30.172Z,5.50
2019-05-30T04:00:42.735Z,5.52
2019-05-30T04:05:52.628Z,5.52
2019-05-30T04:11:00.683Z,5.53
2019-05-30T04:16:06.956Z,5.59
2019-05-30T04:21:14.155Z,5.66
2019-05-30T04:26:19.823Z,5.71
2019-05-30T04:31:25.011Z,5.79
2019-05-30T04:36:30.490Z,5.87
2019-05-30T04:41:35.633Z,5.99
2019-05-30T04:46:41.140Z,6.10
2019-05-30T04:51:46.425Z,6.20
2019-05-30T04:56:51.577Z,6.34
2019-05-30T05:01:57.255Z,6.49
2019-05-30T05:07:02.382Z,6.66
2019-05-30T05:12:07.964Z,6.77
2019-05-30T05:17:14.610Z,6.90
2019-05-30T05:22:21.160Z,7.01
2019-05-30T05:27:26.309Z,7.18
2019-05-30T05:32:31.644Z,7.36
2019-05-30T05:37:37.869Z,7.49
2019-05-30T05:42:43.474Z,7.68
2019-05-30T05:47:48.944Z,7.81
2019-05-30T05:52:54.169Z,7.92
2019-05-30T05:58:04.175Z,8.06
2019-05-30T06:03:08.099Z,8.24
2019-05-30T06:08:13.362Z,8.43
2019-05-30T06:13:18.729Z,8.57
2019-05-30T06:18:24.313Z,8.79
2019-05-30T06:23:29.520Z,9.03
2019-05-30T06:28:34.738Z,9.30
2019-05-30T06:33:40.107Z,9.50
2019-05-30T06:38:45.331Z,9.69
2019-05-30T06:43:50.601Z,9.92
2019-05-30T06:48:55.840Z,10.26
2019-05-30T06:54:01.099Z,10.59
2019-05-30T06:59:07.698Z,10.95
2019-05-30T07:04:13.385Z,11.09
2019-05-30T07:09:18.935Z,11.46
2019-05-30T07:14:25.197Z,11.71
2019-05-30T07:19:31.621Z,11.88
2019-05-30T07:24:37.078Z,12.19
2019-05-30T07:29:42.615Z,12.40
2019-05-30T07:34:47.862Z,12.70
2019-05-30T07:39:53.190Z,12.94
2019-05-30T07:44:58.509Z,13.25
2019-05-30T07:50:03.873Z,13.50
2019-05-30T07:55:10.923Z,13.67
2019-05-30T08:00:17.239Z,13.94
2019-05-30T08:05:24.533Z,14.10
2019-05-30T08:10:29.901Z,14.42
2019-05-30T08:15:38.832Z,14.56
2019-05-30T08:20:42.512Z,14.69
2019-05-30T08:25:47.733Z,14.94
2019-05-30T08:30:56.570Z,15.05
2019-05-30T08:36:00.273Z,15.28
2019-05-30T08:41:05.599Z,15.42
2019-05-30T08:46:10.825Z,15.72
2019-05-30T08:51:16.449Z,15.62
2019-05-30T08:56:21.732Z,15.74
2019-05-30T09:01:27.028Z,15.87
2019-05-30T09:06:32.372Z,16.04
2019-05-30T09:11:38.926Z,16.21
2019-05-30T09:16:46.516Z,16.42
2019-05-30T09:21:51.958Z,16.53
2019-05-30T09:26:57.186Z,16.60
2019-05-30T09:32:02.831Z,16.84
2019-05-30T09:37:08.453Z,17.13
2019-05-30T09:42:13.699Z,16.97
2019-05-30T09:47:18.917Z,16.99
2019-05-30T09:52:24.151Z,17.21
2019-05-30T09:57:30.103Z,17.28
2019-05-30T10:02:35.456Z,17.33
2019-05-30T10:07:43.573Z,17.65
2019-05-30T10:12:50.227Z,17.83
2019-05-30T10:17:56.867Z,17.81
2019-05-30T10:23:03.701Z,17.60
2019-05-30T10:28:09.181Z,17.98
2019-05-30T10:33:15.030Z,18.39
2019-05-30T10:38:20.355Z,18.33
2019-05-30T10:43:25.583Z,18.18
2019-05-30T10:48:31.043Z,18.53
2019-05-30T10:53:37.625Z,18.94
2019-05-30T10:58:43.957Z,19.07
2019-05-30T11:03:50.365Z,19.16
2019-05-30T11:08:58.579Z,18.89
2019-05-30T11:14:04.126Z,18.91
2019-05-30T11:19:09.364Z,18.81
2019-05-30T11:24:14.842Z,19.28
2019-05-30T11:29:20.066Z,19.61
2019-05-30T11:34:25.438Z,19.44
2019-05-30T11:39:31.734Z,19.59
2019-05-30T11:44:37.407Z,19.52
2019-05-30T11:49:43.961Z,19.61
2019-05-30T11:54:49.839Z,19.47
2019-05-30T11:59:56.207Z,19.24
2019-05-30T12:05:01.516Z,19.13
2019-05-30T12:10:07.657Z,19.77
2019-05-30T12:15:13.129Z,20.18
2019-05-30T12:20:19.266Z,19.81
2019-05-30T12:25:24.526Z,20.33
2019-05-30T12:30:29.940Z,20.39
2019-05-30T12:35:35.704Z,20.04
2019-05-30T12:40:41.711Z,20.15
2019-05-30T12:45:46.996Z,19.93
2019-05-30T12:50:53.183Z,20.53
2019-05-30T12:55:58.570Z,20.96
2019-05-30T13:01:04.532Z,21.18
2019-05-30T13:06:09.804Z,21.11
2019-05-30T13:11:15.042Z,21.44
2019-05-30T13:16:20.402Z,21.37
2019-05-30T13:21:25.634Z,21.77
2019-05-30T13:26:30.898Z,21.64
2019-05-30T13:31:36.933Z,21.36
2019-05-30T13:36:42.596Z,21.86
2019-05-30T13:41:48.242Z,22.68
2019-05-30T13:46:53.485Z,22.35
2019-05-30T13:51:59.026Z,22.35
2019-05-30T13:57:05.765Z,22.34
2019-05-30T14:02:12.252Z,21.91
2019-05-30T14:07:17.828Z,21.53
2019-05-30T14:12:23.868Z,21.25
2019-05-30T14:17:29.131Z,22.29
2019-05-30T14:22:35.068Z,22.54
2019-05-30T14:27:40.473Z,21.93
2019-05-30T14:32:46.145Z,21.68
2019-05-30T14:37:51.381Z,21.33
2019-05-30T14:42:56.656Z,21.67
2019-05-30T14:48:02.323Z,21.70
2019-05-30T14:53:08.748Z,21.38
2019-05-30T14:58:14.013Z,21.93
2019-05-30T15:03:19.384Z,22.09
2019-05-30T15:08:24.622Z,22.55
2019-05-30T15:13:30.140Z,22.19
2019-05-30T15:18:35.491Z,21.34
2019-05-30T15:23:41.822Z,20.98
2019-05-30T15:28:47.067Z,21.49
2019-05-30T15:33:52.360Z,22.01
2019-05-30T15:38:57.615Z,22.21
2019-05-30T15:44:02.948Z,21.69
2019-05-30T15:49:08.248Z,20.88
2019-05-30T15:54:15.054Z,20.46
2019-05-30T15:59:20.599Z,20.25
2019-05-30T16:04:25.928Z,20.38
2019-05-30T16:09:46.373Z,20.33
2019-05-30T16:14:40.725Z,20.25
2019-05-30T16:19:45.941Z,20.04
2019-05-30T16:24:52.209Z,20.35
2019-05-30T16:29:57.755Z,20.06
2019-05-30T16:35:02.951Z,19.84
2019-05-30T16:40:08.493Z,19.69
2019-05-30T16:45:18.654Z,19.43
2019-05-30T16:50:23.609Z,19.27
2019-05-30T16:55:29.906Z,19.19
2019-05-30T17:00:35.296Z,19.09
2019-05-30T17:05:40.708Z,19.00
2019-05-30T17:10:46.962Z,18.90
2019-05-30T17:15:52.523Z,18.63
2019-05-30T17:20:57.791Z,18.56
2019-05-30T17:26:03.176Z,18.42
2019-05-30T17:31:08.508Z,18.33
2019-05-30T17:36:14.018Z,18.35
2019-05-30T17:41:19.241Z,18.25
2019-05-30T17:46:25.747Z,18.18
2019-05-30T17:51:32.110Z,18.10
2019-05-30T17:56:38.355Z,18.06
2019-05-30T18:01:43.603Z,17.93
2019-05-30T18:06:49.231Z,17.81
2019-05-30T18:11:54.465Z,17.66
2019-05-30T18:16:59.810Z,17.54
2019-05-30T18:22:05.065Z,17.48
2019-05-30T18:27:10.277Z,17.35
2019-05-30T18:32:15.542Z,17.24
2019-05-30T18:37:22.176Z,17.15
2019-05-30T18:42:27.506Z,17.09
2019-05-30T18:47:33.847Z,17.03
2019-05-30T18:52:39.075Z,17.01
2019-05-30T18:57:47.443Z,16.94
2019-05-30T19:02:53.029Z,16.83
2019-05-30T19:07:58.259Z,16.70
2019-05-30T19:13:03.813Z,16.62
2019-05-30T19:18:10.235Z,16.51
2019-05-30T19:23:15.622Z,16.38
2019-05-30T19:28:20.846Z,16.32
2019-05-30T19:33:26.677Z,16.28
2019-05-30T19:38:33.264Z,16.21
2019-05-30T19:43:38.939Z,16.21
2019-05-30T19:48:44.223Z,16.15
2019-05-30T19:53:49.452Z,16.05
2019-05-30T19:58:54.692Z,15.92
2019-05-30T20:03:59.932Z,15.95
2019-05-30T20:09:07.857Z,15.96
2019-05-30T20:14:13.184Z,16.01
2019-05-30T20:19:18.459Z,16.06
2019-05-30T20:24:23.682Z,16.09
2019-05-30T20:29:29.329Z,16.08
2019-05-30T20:34:34.903Z,16.10
2019-05-30T20:39:40.840Z,16.12
2019-05-30T20:44:47.192Z,16.08
2019-05-30T20:49:52.802Z,16.02
2019-05-30T20:54:59.005Z,16.00
2019-05-30T21:00:05.012Z,15.98
2019-05-30T21:05:13.294Z,15.91
2019-05-30T21:10:19.514Z,15.88
2019-05-30T21:15:25.062Z,15.90
2019-05-30T21:20:30.286Z,15.92
2019-05-30T21:25:37.369Z,15.94
2019-05-30T21:30:43.298Z,15.96
2019-05-30T21:35:48.734Z,15.96
2019-05-30T21:40:53.915Z,15.94
2019-05-30T21:45:59.155Z,15.94
2019-05-30T21:51:04.409Z,15.96
2019-05-30T21:56:12.813Z,15.94
2019-05-30T22:01:34.726Z,15.96
2019-05-30T22:06:40.840Z,15.96
2019-05-30T22:11:46.180Z,15.92
2019-05-30T22:16:52.196Z,15.92
2019-05-30T22:21:57.578Z,15.92
2019-05-30T22:27:02.841Z,15.92
2019-05-30T22:32:08.086Z,15.90
2019-05-30T22:37:13.326Z,15.85
2019-05-30T22:42:18.540Z,15.86
2019-05-30T22:47:23.758Z,15.89
2019-05-30T22:52:29.397Z,15.89
2019-05-30T22:57:34.595Z,15.82
2019-05-30T23:02:40.683Z,15.81
2019-05-30T23:07:45.907Z,15.80
2019-05-30T23:12:51.897Z,15.82
2019-05-30T23:17:57.185Z,15.83
2019-05-30T23:23:02.334Z,15.78
2019-05-30T23:28:08.175Z,15.78
2019-05-30T23:33:14.442Z,15.79
2019-05-30T23:38:20.068Z,15.79
2019-05-30T23:43:26.376Z,15.74
2019-05-30T23:48:31.607Z,15.75
2019-05-30T23:53:37.657Z,15.75
2019-05-30T23:58:43.238Z,15.73
